Time;durP1;ratioP1;P1;durP2;ratioP2;P2;SDS_P1;SDS_P2;PMS_P1;PMS_P2;Temp;Humidity;BMP_temperature;BMP_pressure;BME280_temperature;BME280_humidity;BME280_pressure;Samples;Min_cycle;Max_cycle;Signal;HPM_P1;HPM_P2
2023/12/14 00:00:52;;;;;;;42.27;23.13;;;;;;;-143.21;82.80;72462.84;5039607;28;20213;-85
2023/12/14 00:03:19;;;;;;;43.87;23.70;;;;;;;-143.21;83.86;72470.78;5039713;28;20211;-85
2023/12/14 00:05:47;;;;;;;37.73;22.67;;;;;;;-143.21;84.12;72470.78;5040244;28;20205;-85
2023/12/14 00:08:14;;;;;;;39.47;23.23;;;;;;;-143.21;83.80;72458.88;5042268;28;20201;-85
2023/12/14 00:10:41;;;;;;;37.97;21.70;;;;;;;-143.21;84.23;72452.94;5043094;28;20202;-85
2023/12/14 00:13:08;;;;;;;39.93;23.57;;;;;;;-143.21;84.19;72441.03;5039707;28;20249;-85
2023/12/14 00:15:34;;;;;;;40.43;21.97;;;;;;;-143.21;83.66;72460.88;5031743;28;20206;-86
2023/12/14 00:18:01;;;;;;;38.47;21.60;;;;;;;-143.21;83.44;72448.97;5032132;28;20217;-86
2023/12/14 00:20:28;;;;;;;42.10;21.90;;;;;;;-143.21;83.25;72450.97;5032166;28;20218;-86
2023/12/14 00:22:56;;;;;;;39.13;22.30;;;;;;;-143.21;83.00;72447.00;5031582;28;20206;-85
2023/12/14 00:25:23;;;;;;;39.20;20.33;;;;;;;-143.21;83.22;72448.97;5032448;28;20221;-86
2023/12/14 00:27:50;;;;;;;38.27;20.13;;;;;;;-143.21;82.88;72456.91;5032060;28;20295;-85
2023/12/14 00:30:17;;;;;;;39.70;22.13;;;;;;;-143.21;83.27;72460.88;5031836;28;20212;-86
2023/12/14 00:32:44;;;;;;;39.23;21.67;;;;;;;-143.21;83.25;72448.97;5031351;28;20680;-86
2023/12/14 00:35:11;;;;;;;36.67;20.37;;;;;;;-143.21;83.24;72450.97;5031962;28;20199;-86
2023/12/14 00:37:38;;;;;;;36.17;20.40;;;;;;;-143.21;83.13;72448.97;5031833;28;20222;-86
2023/12/14 00:40:07;;;;;;;39.00;21.60;;;;;;;-143.21;82.81;72448.97;5028123;28;20206;-84
2023/12/14 00:42:34;;;;;;;40.70;21.50;;;;;;;-143.21;82.91;72450.97;5028168;28;20198;-85
2023/12/14 00:45:01;;;;;;;37.43;22.00;;;;;;;-143.21;83.42;72456.91;5031409;28;20213;-87
2023/12/14 00:47:28;;;;;;;39.87;21.77;;;;;;;-143.21;83.79;72504.50;5032325;28;20210;-88
2023/12/14 00:49:54;;;;;;;37.40;21.27;;;;;;;-143.21;84.11;72530.28;5032580;28;20676;-88
2023/12/14 00:52:21;;;;;;;39.53;23.27;;;;;;;-143.21;85.22;72526.31;5035063;28;20213;-87
2023/12/14 00:54:48;;;;;;;48.10;22.67;;;;;;;-143.21;85.62;72510.44;5034153;28;20197;-88
2023/12/14 00:57:16;;;;;;;43.80;23.07;;;;;;;-143.21;85.70;72496.56;5032292;28;20708;-87
2023/12/14 00:59:43;;;;;;;40.60;22.80;;;;;;;-143.21;85.51;72490.63;5031259;28;20206;-87
2023/12/14 01:02:10;;;;;;;39.40;21.87;;;;;;;-143.21;85.42;72478.72;5031300;28;20201;-86
2023/12/14 01:04:37;;;;;;;43.80;23.77;;;;;;;-143.21;84.19;72458.88;5030427;28;20202;-86
2023/12/14 01:07:04;;;;;;;45.37;25.27;;;;;;;-143.21;84.34;72452.94;5030775;28;20213;-86
2023/12/14 01:09:30;;;;;;;41.67;23.23;;;;;;;-143.21;83.30;72447.00;5031339;28;20197;-85
2023/12/14 01:11:57;;;;;;;46.43;24.97;;;;;;;-143.21;83.33;72445.00;5031378;28;20214;-85
2023/12/14 01:14:26;;;;;;;44.03;25.43;;;;;;;-143.21;83.25;72439.06;5030507;28;20225;-85
2023/12/14 01:16:52;;;;;;;47.67;26.60;;;;;;;-143.21;83.13;72433.09;5030398;28;20665;-85
2023/12/14 01:19:19;;;;;;;50.10;26.57;;;;;;;-143.21;83.01;72437.06;5030152;28;20280;-84
2023/12/14 01:21:46;;;;;;;52.57;27.60;;;;;;;-143.21;83.21;72437.06;5030055;28;20194;-84
2023/12/14 01:24:13;;;;;;;51.73;26.70;;;;;;;-143.21;83.20;72423.19;5029462;28;20377;-85
2023/12/14 01:26:40;;;;;;;48.33;26.07;;;;;;;-143.21;82.67;72419.22;5029535;28;20660;-85
2023/12/14 01:29:08;;;;;;;48.63;25.13;;;;;;;-143.21;82.48;72417.25;5029721;28;20563;-85
2023/12/14 01:31:36;;;;;;;42.37;22.00;;;;;;;-143.21;81.31;72427.16;5026403;28;20645;-85
2023/12/14 01:34:02;;;;;;;44.63;24.20;;;;;;;-143.21;82.80;72448.97;5030104;28;20271;-85
2023/12/14 01:36:29;;;;;;;43.43;23.77;;;;;;;-143.21;82.63;72488.63;5029761;28;20210;-85
2023/12/14 01:38:56;;;;;;;43.77;24.73;;;;;;;-143.21;83.28;72544.16;5030011;28;20626;-84
2023/12/14 01:41:23;;;;;;;39.57;21.23;;;;;;;-143.21;85.13;72530.28;5029880;28;20201;-85
2023/12/14 01:43:50;;;;;;;36.37;20.17;;;;;;;-143.21;85.83;72522.34;5030248;28;20209;-85
2023/12/14 01:46:16;;;;;;;42.37;22.47;;;;;;;-143.21;86.01;72514.41;5030217;28;20217;-85
2023/12/14 01:48:45;;;;;;;42.30;22.90;;;;;;;-143.21;85.54;72514.41;5030052;28;20228;-85
2023/12/14 01:51:12;;;;;;;44.23;21.73;;;;;;;-143.21;84.51;72510.44;5030439;28;20202;-85
2023/12/14 01:53:39;;;;;;;36.80;21.70;;;;;;;-143.21;84.44;72500.53;5029864;28;20267;-85
2023/12/14 01:56:06;;;;;;;42.17;22.47;;;;;;;-143.21;85.26;72496.56;5025687;28;20202;-84
2023/12/14 01:58:33;;;;;;;39.40;21.17;;;;;;;-143.21;85.03;72502.53;5029187;28;20226;-85
2023/12/14 02:01:07;;;;;;;39.17;21.07;;;;;;;-143.21;84.91;72496.56;5029712;28;21411;-85
2023/12/14 02:03:34;;;;;;;33.90;19.87;;;;;;;-143.21;85.35;72498.56;5029935;28;20212;-85
2023/12/14 02:06:02;;;;;;;38.27;21.57;;;;;;;-143.21;84.68;72492.59;5030206;28;20209;-85
2023/12/14 02:08:29;;;;;;;39.87;19.50;;;;;;;-143.21;83.93;72474.75;5030433;28;20225;-85
2023/12/14 02:10:56;;;;;;;38.60;21.20;;;;;;;-143.21;84.15;72470.78;5033141;28;20693;-85
2023/12/14 02:13:23;;;;;;;36.93;21.10;;;;;;;-143.21;84.28;72466.81;5032344;28;20241;-83
2023/12/14 02:15:50;;;;;;;38.90;19.77;;;;;;;-143.21;83.70;72464.84;5033501;28;20613;-83
2023/12/14 02:18:16;;;;;;;34.90;19.33;;;;;;;-143.21;84.18;72466.81;5033689;28;20222;-83
2023/12/14 02:20:43;;;;;;;34.60;19.77;;;;;;;-143.21;84.48;72474.75;5032924;28;20206;-84
2023/12/14 02:23:11;;;;;;;36.93;19.37;;;;;;;-143.21;84.43;72494.59;5033354;28;20210;-82
2023/12/14 02:25:38;;;;;;;36.47;19.73;;;;;;;-143.21;84.78;72526.31;5032983;28;20206;-83
2023/12/14 02:28:05;;;;;;;36.07;20.07;;;;;;;-143.21;86.51;72532.28;5030051;28;20201;-83
2023/12/14 02:30:32;;;;;;;35.43;20.77;;;;;;;-143.21;86.39;72510.44;5029126;28;20203;-83
2023/12/14 02:32:59;;;;;;;35.83;20.23;;;;;;;-143.21;86.67;72498.56;5032881;28;20220;-84
2023/12/14 02:35:25;;;;;;;38.03;20.73;;;;;;;-143.21;86.67;72480.72;5032964;28;21069;-80
2023/12/14 02:37:52;;;;;;;41.10;20.60;;;;;;;-143.21;86.52;72470.78;5032908;28;20233;-84
2023/12/14 02:40:21;;;;;;;33.03;20.00;;;;;;;-143.21;85.46;72466.81;5033130;28;20313;-83
2023/12/14 02:42:48;;;;;;;35.10;19.67;;;;;;;-143.21;85.01;72466.81;5032600;28;20720;-84
2023/12/14 02:45:15;;;;;;;39.00;20.20;;;;;;;-143.21;84.46;72454.91;5033188;28;20210;-84
2023/12/14 02:47:42;;;;;;;32.80;18.93;;;;;;;-143.21;83.99;72470.78;5033534;28;20201;-85
2023/12/14 02:50:09;;;;;;;33.90;19.07;;;;;;;-143.21;84.23;72462.84;5034311;28;20207;-85
2023/12/14 02:52:36;;;;;;;33.73;18.10;;;;;;;-143.21;85.08;72484.66;5033411;28;20202;-84
2023/12/14 02:55:03;;;;;;;29.87;16.87;;;;;;;-143.21;84.27;72472.78;5032929;28;20201;-83
2023/12/14 02:57:31;;;;;;;30.77;17.33;;;;;;;-143.21;84.41;72478.72;5032541;28;20209;-83
2023/12/14 02:59:58;;;;;;;30.33;17.60;;;;;;;-143.21;83.94;72460.88;5031966;28;20214;-84
2023/12/14 03:02:25;;;;;;;26.47;15.50;;;;;;;-143.21;84.57;72458.88;5032846;28;20220;-84
2023/12/14 03:04:51;;;;;;;29.07;16.47;;;;;;;-143.21;84.02;72454.91;5032798;28;20209;-83
2023/12/14 03:07:19;;;;;;;32.93;16.33;;;;;;;-143.21;83.94;72462.84;5033004;28;20202;-84
2023/12/14 03:09:45;;;;;;;27.90;16.43;;;;;;;-143.21;84.20;72458.88;5033631;28;20201;-83
2023/12/14 03:12:12;;;;;;;30.57;16.40;;;;;;;-143.21;84.49;72447.00;5033091;28;20213;-84
2023/12/14 03:14:41;;;;;;;28.87;16.27;;;;;;;-143.21;84.07;72466.81;5042592;28;20200;-84
2023/12/14 03:17:12;;;;;;;27.17;14.13;;;;;;;-143.21;84.48;72460.88;5041949;28;20209;-83
2023/12/14 03:19:40;;;;;;;29.97;15.33;;;;;;;-143.21;85.70;72474.75;5037968;28;20710;-84
2023/12/14 03:22:07;;;;;;;25.30;13.33;;;;;;;-143.21;86.50;72474.75;5036636;28;20197;-83
2023/12/14 03:24:34;;;;;;;29.83;14.93;;;;;;;-143.21;86.03;72456.91;5043738;28;20224;-84
2023/12/14 03:27:02;;;;;;;29.20;16.23;;;;;;;-143.21;85.60;72437.06;5044271;28;20204;-83
2023/12/14 03:29:28;;;;;;;26.67;15.83;;;;;;;-143.21;85.84;72431.13;5036586;28;20265;-84
2023/12/14 03:31:57;;;;;;;28.83;16.23;;;;;;;-143.21;85.67;72429.16;5031196;28;20218;-83
2023/12/14 03:34:24;;;;;;;29.87;15.93;;;;;;;-143.21;84.68;72407.31;5043127;28;20218;-83
2023/12/14 03:36:50;;;;;;;30.00;17.03;;;;;;;-143.21;84.71;72395.44;5042667;28;20672;-83
2023/12/14 03:39:17;;;;;;;27.03;15.60;;;;;;;-143.21;83.87;72393.44;5038288;28;20233;-83
2023/12/14 03:41:44;;;;;;;26.93;15.60;;;;;;;-143.21;83.34;72373.63;5037957;28;20209;-84
2023/12/14 03:44:11;;;;;;;25.40;14.83;;;;;;;-143.21;83.09;72361.72;5025585;28;20202;-82
2023/12/14 03:46:38;;;;;;;35.73;16.73;;;;;;;-143.21;83.24;72373.63;5041544;28;20210;-82
2023/12/14 03:49:06;;;;;;;26.10;15.80;;;;;;;-143.21;83.08;72371.63;5036513;28;20213;-81
2023/12/14 03:51:33;;;;;;;29.23;15.70;;;;;;;-143.21;83.02;72365.69;5032732;28;20205;-82
2023/12/14 03:54:00;;;;;;;26.27;15.20;;;;;;;-143.21;82.96;72351.78;5032703;28;20221;-81
2023/12/14 03:56:26;;;;;;;26.43;14.23;;;;;;;-143.21;83.26;72361.72;5036344;28;20762;-82
2023/12/14 03:58:53;;;;;;;25.50;15.33;;;;;;;-143.21;83.54;72349.81;5029628;28;20222;-82
2023/12/14 04:01:21;;;;;;;24.47;14.67;;;;;;;-143.21;82.56;72343.88;5044264;28;20281;-82
2023/12/14 04:03:48;;;;;;;27.30;13.90;;;;;;;-143.21;82.67;72371.63;5039186;28;20272;-82
2023/12/14 04:06:17;;;;;;;19.17;11.53;;;;;;;-143.21;83.07;72405.34;5037699;28;20198;-81
2023/12/14 04:08:44;;;;;;;20.83;12.00;;;;;;;-143.21;84.58;72395.44;5044829;28;20201;-83
2023/12/14 04:11:10;;;;;;;21.80;12.33;;;;;;;-143.21;85.62;72411.28;5045042;28;20213;-84
2023/12/14 04:13:38;;;;;;;25.33;13.73;;;;;;;-143.21;85.77;72405.34;5034477;28;20233;-84
2023/12/14 04:16:06;;;;;;;22.87;13.60;;;;;;;-143.21;85.27;72397.41;5030919;28;20674;-84
2023/12/14 04:18:33;;;;;;;21.30;11.43;;;;;;;-143.21;84.59;72395.44;5027791;28;20232;-83
2023/12/14 04:20:59;;;;;;;22.87;11.67;;;;;;;-143.21;84.95;72387.50;5030954;28;20218;-82
2023/12/14 04:23:27;;;;;;;18.27;10.93;;;;;;;-143.21;83.73;72385.50;5031328;28;20214;-82
2023/12/14 04:25:54;;;;;;;16.80;10.60;;;;;;;-143.21;83.82;72369.66;5030602;28;20872;-82
2023/12/14 04:28:21;;;;;;;19.17;10.23;;;;;;;-143.21;84.00;72357.75;5030443;28;20202;-82
2023/12/14 04:30:48;;;;;;;22.43;10.57;;;;;;;-143.21;83.50;72345.84;5030335;28;20233;-82
2023/12/14 04:33:15;;;;;;;16.63;10.47;;;;;;;-143.21;83.14;72331.97;5030130;28;20209;-81
2023/12/14 04:35:41;;;;;;;18.83;11.27;;;;;;;-143.21;83.45;72349.81;5031086;28;20209;-81
2023/12/14 04:38:08;;;;;;;16.77;10.47;;;;;;;-143.21;82.92;72345.84;5030471;28;20202;-81
2023/12/14 04:40:36;;;;;;;18.43;10.70;;;;;;;-143.21;83.19;72341.88;5031208;28;20202;-80
2023/12/14 04:43:03;;;;;;;20.67;11.13;;;;;;;-143.21;82.99;72328.00;5030195;28;20214;-81
2023/12/14 04:45:30;;;;;;;20.43;11.00;;;;;;;-143.21;82.81;72347.84;5030425;28;20569;-83
2023/12/14 04:47:57;;;;;;;20.53;10.87;;;;;;;-143.21;83.17;72329.97;5030655;28;20210;-82
2023/12/14 04:50:24;;;;;;;15.90;10.20;;;;;;;-143.21;82.23;72322.06;5030281;28;20199;-82
2023/12/14 04:52:50;;;;;;;22.33;11.57;;;;;;;-143.21;82.14;72329.97;5030313;28;20262;-76
2023/12/14 04:55:17;;;;;;;20.57;11.37;;;;;;;-143.21;82.15;72369.66;5028081;28;20203;-76
2023/12/14 04:57:48;;;;;;;26.70;16.60;;;;;;;-143.21;82.23;72385.50;5028430;28;20272;-76
2023/12/14 05:00:16;;;;;;;21.63;12.50;;;;;;;-143.21;84.46;72401.38;5027875;28;20214;-77
2023/12/14 05:02:48;;;;;;;20.07;12.90;;;;;;;-143.21;84.77;72401.38;5028052;28;20230;-78
2023/12/14 05:05:15;;;;;;;25.40;12.80;;;;;;;-143.21;84.63;72361.72;5028418;28;20203;-77
2023/12/14 05:07:41;;;;;;;22.50;12.47;;;;;;;-143.21;84.67;72365.69;5026926;28;20210;-77
2023/12/14 05:10:09;;;;;;;44.87;20.43;;;;;;;-143.21;84.56;72351.78;5028125;28;20641;-77
2023/12/14 05:12:36;;;;;;;32.60;15.47;;;;;;;-143.21;84.19;72339.91;5027516;28;20700;-77
2023/12/14 05:15:05;;;;;;;27.33;15.97;;;;;;;-143.21;83.14;72345.84;5028219;28;20227;-77
2023/12/14 05:17:32;;;;;;;25.37;13.87;;;;;;;-143.21;82.66;72349.81;5028570;28;20206;-77
2023/12/14 05:19:59;;;;;;;30.10;14.87;;;;;;;-143.21;83.07;72341.88;5027754;28;20237;-77
2023/12/14 05:22:26;;;;;;;27.33;14.03;;;;;;;-143.21;83.20;72337.91;5028380;28;20211;-77
2023/12/14 05:24:53;;;;;;;23.93;13.90;;;;;;;-143.21;83.25;72359.72;5028309;28;20218;-77
2023/12/14 05:27:20;;;;;;;49.37;28.87;;;;;;;-143.21;82.73;72347.84;5028350;28;20260;-77
2023/12/14 05:29:46;;;;;;;47.67;23.87;;;;;;;-143.21;83.14;72357.75;5023600;28;20190;-75
2023/12/14 05:32:17;;;;;;;41.57;24.43;;;;;;;-143.21;83.51;72349.81;5024459;28;20207;-77
2023/12/14 05:34:44;;;;;;;41.83;23.73;;;;;;;-143.21;82.81;72343.88;5022710;28;20217;-77
2023/12/14 05:37:11;;;;;;;39.87;23.37;;;;;;;-143.21;82.65;72339.91;5022772;28;20220;-77
2023/12/14 05:39:37;;;;;;;36.07;22.30;;;;;;;-143.21;83.01;72359.72;5024731;28;20681;-77
2023/12/14 05:42:05;;;;;;;50.83;28.63;;;;;;;-143.21;82.02;72341.88;5026305;28;20198;-77
2023/12/14 05:44:31;;;;;;;44.27;25.63;;;;;;;-143.21;81.78;72343.88;5020532;28;20195;-77
2023/12/14 05:46:58;;;;;;;45.67;24.27;;;;;;;-143.21;82.15;72345.84;5020125;28;20206;-77
2023/12/14 05:49:26;;;;;;;46.93;25.87;;;;;;;-143.21;82.31;72343.88;5022982;28;20617;-76
2023/12/14 05:51:53;;;;;;;49.90;26.10;;;;;;;-143.21;82.57;72341.88;5025123;28;20199;-79
2023/12/14 05:54:20;;;;;;;39.67;24.13;;;;;;;-143.21;82.70;72383.53;5028443;28;20209;-81
2023/12/14 05:56:47;;;;;;;53.67;30.23;;;;;;;-143.21;82.78;72409.31;5027388;28;20202;-77
2023/12/14 05:59:14;;;;;;;43.60;24.57;;;;;;;-143.21;83.79;72409.31;5028036;28;20234;-76
2023/12/14 06:01:42;;;;;;;43.20;25.57;;;;;;;-143.21;84.93;72419.22;5027673;28;20205;-76
2023/12/14 06:04:09;;;;;;;46.80;23.20;;;;;;;-143.21;84.81;72417.25;5025035;28;20213;-76
2023/12/14 06:06:39;;;;;;;38.83;21.87;;;;;;;-143.21;84.72;72413.28;5028052;28;20211;-76
2023/12/14 06:09:07;;;;;;;32.30;16.83;;;;;;;-143.21;84.90;72399.41;5024904;28;20622;-76
2023/12/14 06:11:33;;;;;;;34.20;18.17;;;;;;;-143.21;84.65;72389.47;5024834;28;20206;-76
2023/12/14 06:14:00;;;;;;;42.87;22.03;;;;;;;-143.21;84.00;72389.47;5024234;28;20258;-76
2023/12/14 06:16:27;;;;;;;34.50;18.97;;;;;;;-143.21;83.87;72369.66;5027521;28;20296;-77
2023/12/14 06:18:54;;;;;;;43.97;22.10;;;;;;;-143.21;83.89;72369.66;5027146;28;20304;-76
2023/12/14 06:21:20;;;;;;;37.53;21.37;;;;;;;-143.21;82.54;72371.63;5027784;28;20676;-77
2023/12/14 06:23:48;;;;;;;44.07;24.77;;;;;;;-143.21;82.45;72375.59;5027171;28;20761;-76
2023/12/14 06:26:15;;;;;;;45.50;25.13;;;;;;;-143.21;82.54;72379.56;5027748;28;20217;-76
2023/12/14 06:28:42;;;;;;;42.97;24.60;;;;;;;-143.21;82.81;72377.56;5025939;28;20195;-77
2023/12/14 06:31:13;;;;;;;41.37;23.70;;;;;;;-143.21;83.28;72371.63;5027866;28;20207;-77
2023/12/14 06:33:40;;;;;;;48.20;23.47;;;;;;;-143.21;83.02;72361.72;5027891;28;20190;-77
2023/12/14 06:36:08;;;;;;;42.10;23.37;;;;;;;-143.21;83.04;72369.66;5023967;28;20206;-77
2023/12/14 06:38:35;;;;;;;44.10;24.60;;;;;;;-143.21;82.06;72359.72;5023570;28;20221;-78
2023/12/14 06:41:04;;;;;;;54.60;24.43;;;;;;;-143.21;82.45;72363.69;5027395;28;20221;-77
2023/12/14 06:43:30;;;;;;;46.53;25.27;;;;;;;-143.21;82.53;72371.63;5027555;28;20297;-77
2023/12/14 06:45:57;;;;;;;35.97;20.70;;;;;;;-143.21;82.48;72395.44;5027245;28;20345;-77
2023/12/14 06:48:24;;;;;;;43.20;25.13;;;;;;;-143.21;84.56;72429.16;5026821;28;20305;-77
2023/12/14 06:50:54;;;;;;;51.30;24.97;;;;;;;-143.21;84.44;72405.34;5027068;28;20199;-77
2023/12/14 06:53:22;;;;;;;44.33;24.13;;;;;;;-143.21;84.57;72407.31;5028377;28;20199;-77
2023/12/14 06:55:49;;;;;;;40.90;21.33;;;;;;;-143.21;84.15;72391.47;5027463;28;20202;-79
2023/12/14 06:58:18;;;;;;;31.73;19.17;;;;;;;-143.21;82.90;72365.69;5030220;28;20199;-77
2023/12/14 07:00:45;;;;;;;39.17;20.70;;;;;;;-143.21;82.79;72353.78;5029266;28;20284;-77
2023/12/14 07:03:11;;;;;;;35.47;19.77;;;;;;;-143.21;82.91;72341.88;5030325;28;20669;-77
2023/12/14 07:05:39;;;;;;;36.97;20.60;;;;;;;-143.21;82.44;72335.94;5030173;28;20249;-77
2023/12/14 07:08:06;;;;;;;39.87;18.70;;;;;;;-143.21;81.91;72322.06;5027407;28;20205;-77
2023/12/14 07:10:33;;;;;;;32.83;18.80;;;;;;;-143.21;81.31;72312.13;5030812;28;20202;-77
2023/12/14 07:13:00;;;;;;;37.43;18.73;;;;;;;-143.21;81.16;72312.13;5030498;28;20322;-77
2023/12/14 07:15:28;;;;;;;39.77;20.50;;;;;;;-143.21;81.07;72308.16;5030709;28;20219;-78
2023/12/14 07:17:54;;;;;;;47.53;24.83;;;;;;;-143.21;81.13;72296.28;5030547;28;20221;-78
2023/12/14 07:20:22;;;;;;;58.27;25.73;;;;;;;-143.21;81.26;72304.19;5029965;28;20685;-77
2023/12/14 07:22:49;;;;;;;50.77;26.17;;;;;;;-143.21;81.49;72296.28;5029936;28;20257;-78
2023/12/14 07:25:15;;;;;;;57.33;26.93;;;;;;;-143.21;81.00;72282.38;5030678;28;20217;-78
2023/12/14 07:27:43;;;;;;;53.70;25.17;;;;;;;-143.21;81.20;72276.44;5030026;28;20222;-77
2023/12/14 07:30:10;;;;;;;44.43;25.63;;;;;;;-143.21;81.01;72270.50;5030223;28;20198;-77
2023/12/14 07:32:39;;;;;;;47.33;23.53;;;;;;;-143.21;79.56;72248.66;5030354;28;20210;-77
2023/12/14 07:35:06;;;;;;;39.23;21.80;;;;;;;-143.21;79.63;72242.72;5027612;28;20203;-81
2023/12/14 07:37:33;;;;;;;41.07;22.17;;;;;;;-143.21;79.38;72236.78;5029404;28;20614;-86
2023/12/14 07:40:00;;;;;;;35.63;20.90;;;;;;;-143.21;79.45;72234.78;5032563;28;20223;-85
2023/12/14 07:42:27;;;;;;;39.00;20.93;;;;;;;-143.21;79.42;72242.72;5032739;28;20207;-85
2023/12/14 07:44:54;;;;;;;39.30;20.97;;;;;;;-143.21;78.66;72222.91;5032530;28;20218;-85
2023/12/14 07:47:21;;;;;;;39.23;21.40;;;;;;;-143.21;78.71;72224.88;5032589;28;20210;-86
2023/12/14 07:49:49;;;;;;;48.23;24.47;;;;;;;-143.21;78.98;72214.97;5031902;28;20198;-86
2023/12/14 07:52:16;;;;;;;44.13;25.00;;;;;;;-143.21;79.08;72214.97;5032135;28;20206;-86
2023/12/14 07:54:42;;;;;;;51.77;24.03;;;;;;;-143.21;78.86;72209.00;5031661;28;20641;-87
2023/12/14 07:57:09;;;;;;;45.17;23.83;;;;;;;-143.21;78.89;72195.13;5031651;28;20217;-83
2023/12/14 07:59:36;;;;;;;47.07;24.10;;;;;;;-143.21;78.58;72187.19;5030721;28;20457;-86
2023/12/14 08:02:03;;;;;;;43.27;22.43;;;;;;;-143.21;77.38;72185.22;5029647;28;20277;-84
2023/12/14 08:04:30;;;;;;;48.83;22.03;;;;;;;-143.21;77.14;72187.19;5027398;28;20214;-83
2023/12/14 08:06:58;;;;;;;38.30;16.80;;;;;;;-143.21;76.33;72171.34;5026463;28;21062;-83
2023/12/14 08:09:25;;;;;;;35.57;17.30;;;;;;;-143.21;76.32;72165.38;5031057;28;20218;-81
2023/12/14 08:11:52;;;;;;;43.00;17.97;;;;;;;-143.21;75.85;72133.66;5029727;28;20206;-81
2023/12/14 08:14:19;;;;;;;47.93;20.13;;;;;;;-143.21;75.17;72129.69;5035211;28;20238;-80
2023/12/14 08:16:45;;;;;;;48.33;18.47;;;;;;;-143.21;74.63;72125.72;5032331;28;20203;-81
2023/12/14 08:19:12;;;;;;;37.07;17.23;;;;;;;-143.21;75.22;72135.63;5037039;28;20205;-80
2023/12/14 08:21:39;;;;;;;39.47;19.00;;;;;;;-143.21;75.27;72121.75;5027765;28;20288;-82
2023/12/14 08:24:08;;;;;;;43.37;19.90;;;;;;;-143.21;75.22;72123.75;5032279;28;20217;-82
2023/12/14 08:26:34;;;;;;;35.67;19.40;;;;;;;-143.21;75.51;72107.88;5034701;28;20202;-81
2023/12/14 08:29:01;;;;;;;37.27;16.83;;;;;;;-143.21;74.70;72092.00;5035719;28;20206;-82
2023/12/14 08:31:28;;;;;;;43.00;18.30;;;;;;;-143.21;75.13;72086.06;5039079;28;20206;-82
2023/12/14 08:33:55;;;;;;;59.87;19.57;;;;;;;-143.21;74.69;72084.06;5035919;28;20223;-87
2023/12/14 08:36:22;;;;;;;38.77;17.73;;;;;;;-143.21;75.12;72070.19;5041871;28;20203;-85
2023/12/14 08:38:49;;;;;;;38.87;16.97;;;;;;;-143.21;73.53;72050.38;5037521;28;20213;-86
2023/12/14 08:41:17;;;;;;;49.57;19.07;;;;;;;-143.21;73.31;72038.47;5029698;28;20222;-79
2023/12/14 08:43:44;;;;;;;42.93;16.50;;;;;;;-143.21;73.23;72034.50;5028359;28;20285;-86
2023/12/14 08:46:11;;;;;;;34.40;15.60;;;;;;;-143.21;73.13;72036.50;5033939;28;20202;-80
2023/12/14 08:48:37;;;;;;;42.60;15.90;;;;;;;-143.21;73.20;72030.53;5041452;28;20210;-81
2023/12/14 08:51:05;;;;;;;33.43;15.50;;;;;;;-143.21;72.49;72022.59;5031228;28;20657;-81
2023/12/14 08:53:32;;;;;;;26.57;12.80;;;;;;;-143.21;71.09;71990.88;5039049;28;20199;-81
2023/12/14 08:55:59;;;;;;;29.90;13.17;;;;;;;-143.21;70.54;71978.97;5038968;28;20221;-81
2023/12/14 08:58:27;;;;;;;37.83;13.17;;;;;;;-143.21;70.80;71980.97;5036922;28;20210;-81
2023/12/14 09:00:54;;;;;;;31.27;12.47;;;;;;;-143.21;71.01;71971.06;5036114;28;20232;-82
2023/12/14 09:03:30;;;;;;;28.57;11.13;;;;;;;-143.21;71.43;71965.09;5048303;28;20616;-81
2023/12/14 09:05:58;;;;;;;22.80;11.30;;;;;;;-143.21;71.07;71949.25;5045736;28;20216;-81
2023/12/14 09:08:25;;;;;;;21.97;11.63;;;;;;;-143.21;70.60;71939.31;5038765;28;20285;-82
2023/12/14 09:10:52;;;;;;;21.10;10.53;;;;;;;-143.21;70.26;71931.38;5039311;28;20595;-81
2023/12/14 09:13:19;;;;;;;27.10;10.80;;;;;;;-143.21;69.75;71921.47;5027496;28;20285;-81
2023/12/14 09:15:47;;;;;;;21.83;10.60;;;;;;;-143.21;69.50;71891.72;5030823;28;20264;-81
2023/12/14 09:18:14;;;;;;;17.77;10.67;;;;;;;-143.21;68.71;71883.81;5030097;28;20602;-81
2023/12/14 09:20:42;;;;;;;19.17;10.83;;;;;;;-143.21;68.90;71883.81;5030468;28;20625;-82
2023/12/14 09:23:09;;;;;;;27.60;12.00;;;;;;;-143.21;69.15;71867.94;5030571;28;20203;-82
2023/12/14 09:25:36;;;;;;;23.40;10.70;;;;;;;-143.21;68.85;71858.03;5030490;28;20202;-83
2023/12/14 09:28:03;;;;;;;26.17;9.87;;;;;;;-143.21;68.68;71858.03;5030987;28;20213;-82
2023/12/14 09:30:29;;;;;;;20.13;10.27;;;;;;;-143.21;68.87;71860.00;5030720;28;20245;-81
2023/12/14 09:32:57;;;;;;;19.33;9.83;;;;;;;-143.21;68.23;71852.06;5030092;28;20288;-80
2023/12/14 09:35:24;;;;;;;16.07;9.53;;;;;;;-143.21;68.05;71844.16;5030436;28;20213;-83
2023/12/14 09:37:52;;;;;;;21.87;11.37;;;;;;;-143.21;67.99;71850.09;5030684;28;20202;-83
2023/12/14 09:40:19;;;;;;;15.20;9.00;;;;;;;-143.21;67.26;71832.25;5028614;28;20232;-81
2023/12/14 09:42:46;;;;;;;17.47;9.57;;;;;;;-143.21;66.89;71834.22;5029032;28;20226;-82
2023/12/14 09:45:13;;;;;;;22.57;9.43;;;;;;;-143.21;66.40;71818.38;5030124;28;20202;-83
2023/12/14 09:47:42;;;;;;;32.13;9.17;;;;;;;-143.21;65.41;71804.47;5030203;28;20252;-82
2023/12/14 09:50:11;;;;;;;18.80;8.67;;;;;;;-143.21;65.67;71796.56;5030397;28;20249;-80
2023/12/14 09:52:37;;;;;;;16.60;8.70;;;;;;;-143.21;63.97;71788.63;5030435;28;20436;-81
2023/12/14 09:55:05;;;;;;;15.10;8.30;;;;;;;-143.21;64.08;71794.56;5030651;28;20541;-82
2023/12/14 09:57:32;;;;;;;28.23;12.83;;;;;;;-143.21;64.20;71792.59;5026670;28;20205;-82
2023/12/14 09:59:58;;;;;;;33.37;17.23;;;;;;;-143.21;63.88;71798.53;5029549;28;20706;-81
2023/12/14 10:02:27;;;;;;;29.10;15.17;;;;;;;-143.21;64.00;71810.44;5030499;28;20207;-80
2023/12/14 10:04:53;;;;;;;25.60;13.87;;;;;;;-143.21;64.28;71812.41;5030231;28;20233;-80
2023/12/14 10:07:22;;;;;;;25.87;12.40;;;;;;;-143.21;64.41;71802.50;5030320;28;20214;-81
2023/12/14 10:09:49;;;;;;;27.53;14.67;;;;;;;-143.21;64.33;71810.44;5030079;28;20206;-82
2023/12/14 10:12:17;;;;;;;27.23;14.33;;;;;;;-143.21;64.56;71816.38;5030047;28;20757;-80
2023/12/14 10:14:43;;;;;;;23.07;11.47;;;;;;;-143.21;64.20;71810.44;5045061;28;20288;-81
2023/12/14 10:17:19;;;;;;;29.60;12.53;;;;;;;-143.21;64.46;71828.28;5036737;28;20202;-81
2023/12/14 10:19:46;;;;;;;29.67;14.10;;;;;;;-143.21;65.14;71836.22;5039691;28;20217;-79
2023/12/14 10:22:15;;;;;;;19.63;10.67;;;;;;;-143.21;66.38;71828.28;5038367;28;20214;-82
2023/12/14 10:24:45;;;;;;;16.97;11.03;;;;;;;-143.21;67.90;71816.38;5033902;28;20206;-81
2023/12/14 10:27:12;;;;;;;19.97;12.03;;;;;;;-143.21;68.71;71830.25;5040341;28;20647;-81
2023/12/14 10:29:39;;;;;;;22.53;12.40;;;;;;;-143.21;69.32;71832.25;5037593;28;20264;-82
2023/12/14 10:32:08;;;;;;;19.40;12.17;;;;;;;-143.21;70.05;71830.25;5037796;28;20202;-81
2023/12/14 10:34:35;;;;;;;23.70;12.23;;;;;;;-143.21;70.31;71844.16;5031216;28;20665;-81
2023/12/14 10:37:03;;;;;;;22.07;12.73;;;;;;;-143.21;71.09;71856.03;5040965;28;20226;-80
2023/12/14 10:39:32;;;;;;;21.13;12.57;;;;;;;-143.21;71.71;71869.91;5039913;28;20205;-79
2023/12/14 10:42:03;;;;;;;27.53;12.97;;;;;;;-143.21;72.41;71863.97;5036895;28;20306;-79
2023/12/14 10:44:35;;;;;;;22.63;11.13;;;;;;;-143.21;73.51;71873.88;5034402;28;20229;-79
2023/12/14 10:47:05;;;;;;;17.10;9.43;;;;;;;-143.21;74.09;71881.81;5043750;28;20214;-79
2023/12/14 10:49:34;;;;;;;17.33;9.17;;;;;;;-143.21;74.75;71899.66;5030314;28;20230;-79
2023/12/14 10:52:03;;;;;;;14.67;8.10;;;;;;;-143.21;75.67;71915.53;5033279;28;20221;-79
2023/12/14 10:54:34;;;;;;;13.20;7.37;;;;;;;-143.21;75.41;71921.47;5033215;28;20287;-79
2023/12/14 10:57:03;;;;;;;11.37;7.00;;;;;;;-143.21;75.56;71933.38;5030505;28;20243;-79
2023/12/14 10:59:32;;;;;;;15.37;8.23;;;;;;;-143.21;75.96;71931.38;5029963;28;20242;-78
2023/12/14 11:01:59;;;;;;;13.83;7.97;;;;;;;-143.21;75.86;71943.28;5029767;28;20235;-79